Terminal Aerodrome Forecast
Issued by NWS Northern Indiana

Home | Current Version | Previous Version | Text Only | Print | Product List | Glossary On
Versions: 1 2 3 4 5 6 7 8 9 10 11 12 13 14
000
FTUS43 KIWX 181156
TAFFWA
TAF
KFWA 181156Z 1812/1912 22006KT 4SM -DZ BR OVC005
      TEMPO 1812/1815 1SM BR OVC003
     FM181600 24009KT P6SM OVC006
     FM181900 24009KT P6SM SCT010 BKN025
     FM190900 23013KT P6SM BKN015=

USA.gov is the U.S. government's official web portal to all federal, state and local government web resources and services.